createdAt,value
2017-08-22T00:01:54.391Z,6.50
2017-08-22T00:04:21.853Z,6.80
2017-08-22T00:06:49.297Z,6.30
2017-08-22T00:09:16.756Z,6.63
2017-08-22T00:11:44.210Z,7.97
2017-08-22T00:14:11.653Z,6.07
2017-08-22T00:16:39.128Z,8.23
2017-08-22T00:19:06.578Z,8.50
2017-08-22T00:21:34.051Z,8.03
2017-08-22T00:24:01.517Z,7.57
2017-08-22T00:26:28.986Z,7.33
2017-08-22T00:28:56.429Z,7.50
2017-08-22T00:31:23.898Z,6.93
2017-08-22T00:33:51.356Z,9.37
2017-08-22T00:36:18.801Z,7.93
2017-08-22T00:38:46.274Z,8.30
2017-08-22T00:41:13.728Z,7.70
2017-08-22T00:43:41.200Z,7.27
2017-08-22T00:46:08.645Z,7.67
2017-08-22T00:48:36.131Z,8.97
2017-08-22T00:51:03.607Z,6.70
2017-08-22T00:53:31.062Z,7.70
2017-08-22T00:55:58.529Z,6.90
2017-08-22T00:58:26.020Z,7.70
2017-08-22T01:00:53.470Z,8.03
2017-08-22T01:03:20.948Z,8.87
2017-08-22T01:05:48.413Z,8.30
2017-08-22T01:08:15.891Z,9.60
2017-08-22T01:10:43.345Z,7.07
2017-08-22T01:13:10.789Z,9.33
2017-08-22T01:15:38.255Z,7.07
2017-08-22T01:18:05.700Z,8.07
2017-08-22T01:20:33.183Z,8.27
2017-08-22T01:23:00.653Z,8.13
2017-08-22T01:25:28.132Z,8.27
2017-08-22T01:27:55.581Z,8.33
2017-08-22T01:30:23.033Z,8.20
2017-08-22T01:32:50.525Z,7.47
2017-08-22T01:35:17.974Z,7.60
2017-08-22T01:37:45.431Z,8.30
2017-08-22T01:40:12.917Z,7.60
2017-08-22T01:42:40.361Z,7.80
2017-08-22T01:45:07.833Z,7.73
2017-08-22T01:47:35.300Z,7.67
2017-08-22T01:50:02.746Z,7.23
2017-08-22T01:52:30.219Z,8.77
2017-08-22T01:54:57.669Z,8.33
2017-08-22T01:57:25.138Z,7.57
2017-08-22T01:59:52.588Z,9.27
2017-08-22T02:02:20.053Z,9.90
2017-08-22T02:04:47.514Z,7.93
2017-08-22T02:07:14.981Z,7.90
2017-08-22T02:09:42.423Z,8.90
2017-08-22T02:12:09.870Z,8.90
2017-08-22T02:14:37.358Z,7.40
2017-08-22T02:17:04.824Z,7.50
2017-08-22T02:19:32.301Z,8.53
2017-08-22T02:21:59.769Z,8.20
2017-08-22T02:24:27.237Z,8.07
2017-08-22T02:26:54.689Z,7.23
2017-08-22T02:29:22.165Z,9.10
2017-08-22T02:31:49.652Z,7.90
2017-08-22T02:34:17.112Z,9.40
2017-08-22T02:36:44.573Z,8.30
2017-08-22T02:39:12.045Z,7.80
2017-08-22T02:41:39.502Z,10.47
2017-08-22T02:44:06.982Z,8.93
2017-08-22T02:46:34.459Z,8.37
2017-08-22T02:49:01.905Z,8.13
2017-08-22T02:51:29.394Z,10.97
2017-08-22T02:53:56.851Z,10.00
2017-08-22T02:56:24.329Z,8.87
2017-08-22T02:58:51.780Z,7.93
2017-08-22T03:01:19.257Z,9.10
2017-08-22T03:03:46.712Z,9.00
2017-08-22T03:06:14.193Z,9.93
2017-08-22T03:08:41.657Z,7.90
2017-08-22T03:11:09.120Z,7.87
2017-08-22T03:13:36.572Z,8.00
2017-08-22T03:16:04.016Z,8.60
2017-08-22T03:18:31.494Z,8.77
2017-08-22T03:20:58.967Z,9.07
2017-08-22T03:23:26.429Z,10.10
2017-08-22T03:25:53.913Z,9.50
2017-08-22T03:28:21.361Z,10.37
2017-08-22T03:30:48.805Z,8.87
2017-08-22T03:33:16.293Z,12.10
2017-08-22T03:35:43.746Z,11.40
2017-08-22T03:38:11.200Z,10.30
2017-08-22T03:40:38.672Z,10.70
2017-08-22T03:43:06.129Z,10.70
2017-08-22T03:45:33.610Z,8.23
2017-08-22T03:48:01.068Z,8.90
2017-08-22T03:50:28.541Z,8.13
2017-08-22T03:52:55.998Z,9.70
2017-08-22T03:55:23.469Z,9.07
2017-08-22T03:57:50.941Z,9.33
2017-08-22T04:00:18.421Z,10.20
2017-08-22T04:02:45.873Z,8.30
2017-08-22T04:05:13.346Z,10.57
2017-08-22T04:07:40.822Z,9.47
2017-08-22T04:10:08.296Z,8.40
2017-08-22T04:12:35.740Z,8.07
2017-08-22T04:15:03.208Z,9.20
2017-08-22T04:17:30.669Z,8.73
2017-08-22T04:19:58.146Z,9.65
2017-08-22T04:22:25.597Z,8.40
2017-08-22T04:24:53.047Z,8.83
2017-08-22T04:27:20.511Z,7.40
2017-08-22T04:29:47.954Z,8.30
2017-08-22T04:32:15.445Z,9.27
2017-08-22T04:34:42.880Z,8.83
2017-08-22T04:39:47.161Z,7.50
2017-08-22T04:42:14.618Z,8.00
2017-08-22T04:44:42.089Z,9.10
2017-08-22T04:47:09.537Z,8.53
2017-08-22T04:49:36.977Z,7.70
2017-08-22T04:52:04.449Z,7.83
2017-08-22T04:54:32.301Z,7.90
2017-08-22T04:56:59.748Z,8.00
2017-08-22T04:59:27.217Z,7.90
2017-08-22T05:01:54.689Z,7.70
2017-08-22T05:04:22.134Z,9.23
2017-08-22T05:06:49.609Z,9.90
2017-08-22T05:09:17.060Z,12.13
2017-08-22T05:11:44.515Z,12.63
2017-08-22T05:14:11.985Z,10.40
2017-08-22T05:16:39.432Z,8.27
2017-08-22T05:19:06.905Z,9.47
2017-08-22T05:21:34.360Z,10.07
2017-08-22T05:24:01.830Z,9.47
2017-08-22T05:26:29.302Z,9.47
2017-08-22T05:28:56.801Z,9.57
2017-08-22T05:31:24.257Z,8.53
2017-08-22T05:33:51.735Z,9.90
2017-08-22T05:36:19.189Z,8.70
2017-08-22T05:38:46.656Z,9.80
2017-08-22T05:41:14.105Z,10.13
2017-08-22T05:43:41.547Z,7.50
2017-08-22T05:46:09.025Z,8.90
2017-08-22T05:48:36.482Z,8.77
2017-08-22T05:51:03.957Z,9.03
2017-08-22T05:53:31.401Z,8.90
2017-08-22T05:55:58.873Z,10.43
2017-08-22T05:58:26.330Z,10.33
2017-08-22T06:00:53.810Z,10.90
2017-08-22T06:03:21.303Z,10.87
2017-08-22T06:05:48.758Z,11.60
2017-08-22T06:08:16.241Z,11.50
2017-08-22T06:10:43.696Z,10.07
2017-08-22T06:13:11.153Z,11.20
2017-08-22T06:15:38.641Z,11.87
2017-08-22T06:18:06.103Z,11.73
2017-08-22T06:20:33.589Z,11.13
2017-08-22T06:23:01.066Z,11.60
2017-08-22T06:25:28.522Z,11.63
2017-08-22T06:27:55.993Z,11.10
2017-08-22T06:30:23.443Z,12.83
2017-08-22T06:32:50.929Z,12.97
2017-08-22T06:35:18.381Z,12.13
2017-08-22T06:37:45.883Z,12.80
2017-08-22T06:40:13.339Z,10.60
2017-08-22T06:42:40.813Z,12.30
2017-08-22T06:45:08.294Z,12.53
2017-08-22T06:47:36.044Z,9.83
2017-08-22T06:50:03.518Z,9.87
2017-08-22T06:52:30.984Z,9.60
2017-08-22T06:54:58.437Z,16.90
2017-08-22T06:57:25.889Z,12.97
2017-08-22T06:59:53.361Z,9.97
2017-08-22T07:02:20.805Z,9.80
2017-08-22T07:04:48.262Z,9.37
2017-08-22T07:07:15.738Z,10.90
2017-08-22T07:09:43.199Z,20.07
2017-08-22T07:12:10.658Z,11.80
2017-08-22T07:14:38.153Z,9.20
2017-08-22T07:17:05.610Z,9.17
2017-08-22T07:19:33.088Z,10.90
2017-08-22T07:22:00.541Z,11.60
2017-08-22T07:24:28.001Z,10.97
2017-08-22T07:26:55.472Z,10.90
2017-08-22T07:29:22.925Z,9.27
2017-08-22T07:31:50.399Z,9.03
2017-08-22T07:34:17.845Z,12.90
2017-08-22T07:36:45.467Z,10.00
2017-08-22T07:39:12.914Z,8.90
2017-08-22T07:41:40.381Z,9.17
2017-08-22T07:44:07.849Z,8.63
2017-08-22T07:46:35.333Z,8.67
2017-08-22T07:49:02.804Z,10.83
2017-08-22T07:51:30.286Z,8.57
2017-08-22T07:53:57.733Z,9.70
2017-08-22T07:56:25.180Z,8.90
2017-08-22T07:58:52.649Z,9.10
2017-08-22T08:01:20.099Z,8.40
2017-08-22T08:03:47.578Z,8.67
2017-08-22T08:06:15.050Z,8.50
2017-08-22T08:08:42.553Z,9.37
2017-08-22T08:11:10.000Z,7.03
2017-08-22T08:13:37.474Z,7.00
2017-08-22T08:16:04.941Z,8.43
2017-08-22T08:18:32.414Z,7.40
2017-08-22T08:20:59.861Z,8.33
2017-08-22T08:23:27.336Z,7.70
2017-08-22T08:25:54.782Z,9.00
2017-08-22T08:28:22.254Z,7.87
2017-08-22T08:30:49.708Z,8.03
2017-08-22T08:33:17.176Z,7.27
2017-08-22T08:35:44.626Z,6.50
2017-08-22T08:38:12.082Z,6.87
2017-08-22T08:40:39.558Z,6.90
2017-08-22T08:43:07.009Z,7.50
2017-08-22T08:45:34.473Z,7.57
2017-08-22T08:48:01.927Z,8.43
2017-08-22T08:50:29.393Z,7.03
2017-08-22T08:52:56.865Z,7.73
2017-08-22T08:55:24.308Z,7.70
2017-08-22T08:57:51.766Z,6.80
2017-08-22T09:00:19.236Z,7.67
2017-08-22T09:02:46.691Z,8.00
2017-08-22T09:05:14.164Z,7.00
2017-08-22T09:07:41.613Z,7.33
2017-08-22T09:10:09.083Z,7.40
2017-08-22T09:12:36.521Z,6.53
2017-08-22T09:15:04.165Z,8.27
2017-08-22T09:17:31.626Z,6.20
2017-08-22T09:19:59.094Z,7.20
2017-08-22T09:22:26.569Z,6.53
2017-08-22T09:24:54.039Z,6.30
2017-08-22T09:27:21.496Z,6.00
2017-08-22T09:29:48.961Z,5.23
2017-08-22T09:32:16.421Z,5.60
2017-08-22T09:34:43.893Z,5.73
2017-08-22T09:37:11.357Z,8.93
2017-08-22T09:39:38.835Z,5.90
2017-08-22T09:42:06.311Z,5.40
2017-08-22T09:44:33.775Z,4.73
2017-08-22T09:47:01.258Z,4.67
2017-08-22T09:49:28.728Z,4.60
2017-08-22T09:51:56.169Z,4.03
2017-08-22T09:54:23.637Z,4.00
2017-08-22T09:56:51.085Z,4.73
2017-08-22T09:59:18.553Z,4.40
2017-08-22T10:01:45.997Z,3.80
2017-08-22T10:04:13.447Z,3.93
2017-08-22T10:06:40.914Z,4.60
2017-08-22T10:09:08.356Z,3.97
2017-08-22T10:11:35.800Z,3.77
2017-08-22T10:14:03.277Z,8.50
2017-08-22T10:16:30.746Z,3.70
2017-08-22T10:18:58.815Z,3.37
2017-08-22T10:21:26.285Z,3.97
2017-08-22T10:23:53.761Z,3.57
2017-08-22T10:26:21.205Z,3.53
2017-08-22T10:28:48.650Z,2.60
2017-08-22T10:31:16.118Z,2.47
2017-08-22T10:33:43.566Z,2.30
2017-08-22T10:36:11.045Z,3.10
2017-08-22T10:38:38.493Z,2.33
2017-08-22T10:41:05.946Z,3.00
2017-08-22T10:43:33.400Z,3.60
2017-08-22T10:46:00.851Z,2.80
2017-08-22T10:48:28.337Z,2.30
2017-08-22T10:50:55.792Z,2.23
2017-08-22T10:53:23.247Z,2.83
2017-08-22T10:55:50.717Z,2.70
2017-08-22T10:58:18.169Z,2.87
2017-08-22T11:00:45.636Z,2.10
2017-08-22T11:03:13.089Z,2.23
2017-08-22T11:05:40.570Z,1.83
2017-08-22T11:08:08.017Z,2.10
2017-08-22T11:10:35.473Z,2.70
2017-08-22T11:13:02.950Z,2.30
2017-08-22T11:15:30.412Z,2.57
2017-08-22T11:17:57.881Z,2.50
2017-08-22T11:20:25.327Z,2.03
2017-08-22T11:22:52.773Z,2.50
2017-08-22T11:25:20.239Z,2.20
2017-08-22T11:27:47.693Z,2.17
2017-08-22T11:30:15.164Z,2.63
2017-08-22T11:32:42.615Z,2.50
2017-08-22T11:35:10.086Z,1.87
2017-08-22T11:37:37.532Z,2.00
2017-08-22T11:40:05.006Z,2.30
2017-08-22T11:42:32.459Z,2.17
2017-08-22T11:44:59.940Z,2.17
2017-08-22T11:47:27.378Z,1.43
2017-08-22T11:49:54.823Z,2.70
2017-08-22T11:52:22.292Z,2.80
2017-08-22T11:54:49.748Z,3.03
2017-08-22T11:57:17.224Z,2.40
2017-08-22T11:59:44.694Z,2.43
2017-08-22T12:02:12.137Z,2.67
2017-08-22T12:04:39.584Z,3.20
2017-08-22T12:07:07.050Z,2.90
2017-08-22T12:09:34.520Z,3.20
2017-08-22T12:12:01.975Z,3.07
2017-08-22T12:14:29.427Z,3.23
2017-08-22T12:16:56.929Z,3.70
2017-08-22T12:19:24.392Z,2.97
2017-08-22T12:21:51.873Z,3.07
2017-08-22T12:24:19.322Z,2.43
2017-08-22T12:26:46.961Z,3.40
2017-08-22T12:29:14.434Z,2.77
2017-08-22T12:31:41.888Z,2.77
2017-08-22T12:34:09.342Z,1.93
2017-08-22T12:36:36.814Z,2.03
2017-08-22T12:39:04.297Z,2.13
2017-08-22T12:41:31.749Z,3.17
2017-08-22T12:43:59.199Z,3.37
2017-08-22T12:46:26.664Z,3.20
2017-08-22T12:48:54.105Z,2.47
2017-08-22T12:51:21.590Z,2.30
2017-08-22T12:53:49.041Z,2.33
2017-08-22T12:56:16.485Z,2.00
2017-08-22T12:58:43.945Z,2.90
2017-08-22T13:01:11.427Z,2.17
2017-08-22T13:03:38.897Z,2.77
2017-08-22T13:06:06.356Z,2.20
2017-08-22T13:08:33.829Z,3.07
2017-08-22T13:11:01.274Z,2.80
2017-08-22T13:13:28.815Z,2.20
2017-08-22T13:15:56.261Z,2.30
2017-08-22T13:18:23.729Z,2.20
2017-08-22T13:20:51.664Z,2.20
2017-08-22T13:23:19.109Z,2.33
2017-08-22T13:25:46.583Z,1.90
2017-08-22T13:28:14.029Z,2.50
2017-08-22T13:30:41.487Z,2.10
2017-08-22T13:33:09.014Z,2.30
2017-08-22T13:38:13.160Z,2.20
2017-08-22T13:40:40.608Z,2.83
2017-08-22T13:43:08.088Z,2.07
2017-08-22T13:45:35.533Z,1.90
2017-08-22T13:48:02.998Z,2.20
2017-08-22T13:50:30.501Z,1.70
2017-08-22T13:52:57.940Z,1.87
2017-08-22T13:55:25.406Z,2.33
2017-08-22T13:57:52.880Z,2.13
2017-08-22T14:00:20.353Z,2.40
2017-08-22T14:02:47.801Z,2.50
2017-08-22T14:05:15.272Z,2.20
2017-08-22T14:07:42.733Z,2.33
2017-08-22T14:10:10.208Z,2.60
2017-08-22T14:12:37.775Z,2.73
2017-08-22T14:15:05.241Z,1.90
2017-08-22T14:17:32.718Z,2.30
2017-08-22T14:20:00.166Z,1.80
2017-08-22T14:22:27.631Z,2.50
2017-08-22T14:24:55.092Z,2.13
2017-08-22T14:27:22.538Z,3.10
2017-08-22T14:29:50.010Z,2.67
2017-08-22T14:32:17.455Z,2.20
2017-08-22T14:34:44.929Z,2.77
2017-08-22T14:37:12.400Z,2.30
2017-08-22T14:39:39.843Z,2.03
2017-08-22T14:42:07.300Z,2.90
2017-08-22T14:44:34.795Z,2.40
2017-08-22T14:47:02.262Z,2.50
2017-08-22T14:49:29.702Z,1.90
2017-08-22T14:51:57.169Z,2.83
2017-08-22T14:54:24.618Z,2.27
2017-08-22T14:56:52.073Z,2.50
2017-08-22T14:59:19.541Z,2.30
2017-08-22T15:01:46.985Z,2.30
2017-08-22T15:04:14.453Z,2.50
2017-08-22T15:06:41.904Z,2.13
2017-08-22T15:09:09.369Z,2.50
2017-08-22T15:11:36.821Z,2.77
2017-08-22T15:14:04.286Z,2.83
2017-08-22T15:16:31.738Z,2.87
2017-08-22T15:18:59.181Z,1.87
2017-08-22T15:21:26.649Z,2.97
2017-08-22T15:23:54.101Z,2.03
2017-08-22T15:26:21.590Z,3.03
2017-08-22T15:28:49.032Z,3.00
2017-08-22T15:31:16.505Z,2.50
2017-08-22T15:33:43.966Z,3.00
2017-08-22T15:36:11.421Z,2.60
2017-08-22T15:38:38.868Z,2.40
2017-08-22T15:41:06.333Z,2.47
2017-08-22T15:43:33.807Z,2.13
2017-08-22T15:46:01.263Z,1.80
2017-08-22T15:48:28.735Z,1.70
2017-08-22T15:50:56.185Z,2.03
2017-08-22T15:53:23.650Z,1.80
2017-08-22T15:55:51.098Z,2.20
2017-08-22T15:58:18.569Z,2.00
2017-08-22T16:00:46.037Z,1.60
2017-08-22T16:03:13.485Z,2.27
2017-08-22T16:05:40.931Z,2.50
2017-08-22T16:08:08.407Z,2.30
2017-08-22T16:10:35.853Z,2.13
2017-08-22T16:13:03.316Z,2.70
2017-08-22T16:15:30.757Z,1.90
2017-08-22T16:17:58.209Z,2.20
2017-08-22T16:20:25.677Z,2.60
2017-08-22T16:22:53.115Z,1.90
2017-08-22T16:25:20.581Z,1.90
2017-08-22T16:27:48.025Z,1.90
2017-08-22T16:30:15.495Z,1.63
2017-08-22T16:32:42.958Z,2.60
2017-08-22T16:35:10.409Z,3.03
2017-08-22T16:37:37.880Z,2.03
2017-08-22T16:40:05.318Z,2.20
2017-08-22T16:42:32.794Z,2.90
2017-08-22T16:45:01.006Z,2.60
2017-08-22T16:47:28.464Z,2.90
2017-08-22T16:49:55.958Z,2.87
2017-08-22T16:52:23.409Z,2.17
2017-08-22T16:54:50.884Z,2.63
2017-08-22T16:57:18.334Z,2.10
2017-08-22T16:59:45.804Z,2.10
2017-08-22T17:02:13.281Z,2.87
2017-08-22T17:04:40.724Z,3.30
2017-08-22T17:07:08.167Z,2.57
2017-08-22T17:09:35.641Z,2.30
2017-08-22T17:12:03.081Z,2.70
2017-08-22T17:14:30.544Z,2.80
2017-08-22T17:16:58.061Z,2.50
2017-08-22T17:19:25.506Z,2.90
2017-08-22T17:21:52.948Z,2.60
2017-08-22T17:24:20.412Z,2.70
2017-08-22T17:26:47.856Z,2.97
2017-08-22T17:29:15.327Z,2.87
2017-08-22T17:31:43.695Z,2.60
2017-08-22T17:34:11.141Z,3.70
2017-08-22T17:36:38.606Z,3.83
2017-08-22T17:39:06.047Z,3.73
2017-08-22T17:41:33.521Z,3.27
2017-08-22T17:44:00.970Z,2.30
2017-08-22T17:46:28.438Z,4.03
2017-08-22T17:48:55.958Z,3.47
2017-08-22T17:51:23.436Z,2.87
2017-08-22T17:53:50.904Z,3.00
2017-08-22T17:56:18.345Z,3.20
2017-08-22T17:58:45.825Z,2.90
2017-08-22T18:01:13.266Z,3.70
2017-08-22T18:03:40.729Z,2.93
2017-08-22T18:06:08.181Z,2.70
2017-08-22T18:08:35.645Z,2.50
2017-08-22T18:11:03.116Z,3.20
2017-08-22T18:13:30.562Z,3.43
2017-08-22T18:15:58.033Z,2.47
2017-08-22T18:18:25.506Z,3.10
2017-08-22T18:20:52.949Z,3.13
2017-08-22T18:23:20.413Z,2.57
2017-08-22T18:25:47.881Z,2.67
2017-08-22T18:28:15.324Z,2.47
2017-08-22T18:30:42.797Z,3.00
2017-08-22T18:33:10.249Z,2.27
2017-08-22T18:35:37.708Z,3.07
2017-08-22T18:38:05.156Z,3.40
2017-08-22T18:40:32.601Z,3.40
2017-08-22T18:43:00.075Z,2.37
2017-08-22T18:45:27.539Z,2.20
2017-08-22T18:47:55.001Z,3.30
2017-08-22T18:50:22.457Z,2.83
2017-08-22T18:52:49.900Z,2.80
2017-08-22T18:55:17.381Z,2.70
2017-08-22T18:57:44.845Z,3.00
2017-08-22T19:00:12.298Z,3.67
2017-08-22T19:02:39.734Z,3.37
2017-08-22T19:05:07.215Z,3.90
2017-08-22T19:07:34.662Z,4.00
2017-08-22T19:10:02.111Z,3.70
2017-08-22T19:12:29.594Z,3.03
2017-08-22T19:14:57.066Z,3.83
2017-08-22T19:17:24.517Z,3.90
2017-08-22T19:19:51.981Z,3.77
2017-08-22T19:22:19.421Z,4.30
2017-08-22T19:24:46.868Z,4.27
2017-08-22T19:27:14.338Z,3.77
2017-08-22T19:29:41.825Z,3.53
2017-08-22T19:32:09.276Z,3.60
2017-08-22T19:34:36.730Z,5.10
2017-08-22T19:37:04.201Z,5.00
2017-08-22T19:39:31.825Z,3.70
2017-08-22T19:41:59.311Z,4.10
2017-08-22T19:44:26.972Z,5.00
2017-08-22T19:46:54.884Z,4.57
2017-08-22T19:49:22.357Z,4.90
2017-08-22T19:51:50.127Z,6.50
2017-08-22T19:54:17.664Z,5.47
2017-08-22T19:56:45.416Z,4.63
2017-08-22T19:59:12.893Z,4.50
2017-08-22T20:01:40.900Z,4.50
2017-08-22T20:04:08.363Z,4.53
2017-08-22T20:06:35.888Z,4.40
2017-08-22T20:09:03.342Z,4.23
2017-08-22T20:11:30.814Z,4.20
2017-08-22T20:13:58.253Z,4.53
2017-08-22T20:16:25.730Z,3.60
2017-08-22T20:18:53.212Z,4.60
2017-08-22T20:21:20.667Z,5.67
2017-08-22T20:23:48.145Z,4.87
2017-08-22T20:26:15.600Z,5.23
2017-08-22T20:28:43.070Z,5.33
2017-08-22T20:31:10.562Z,5.20
2017-08-22T20:33:38.011Z,4.80
2017-08-22T20:36:05.488Z,4.80
2017-08-22T20:38:32.929Z,4.60
2017-08-22T20:41:00.380Z,5.40
2017-08-22T20:43:27.855Z,5.93
2017-08-22T20:45:55.304Z,6.47
2017-08-22T20:48:22.769Z,5.77
2017-08-22T20:50:50.210Z,4.77
2017-08-22T20:53:17.671Z,4.60
2017-08-22T20:55:45.121Z,5.10
2017-08-22T20:58:12.593Z,6.17
2017-08-22T21:00:40.041Z,7.10
2017-08-22T21:03:07.509Z,6.63
2017-08-22T21:05:34.972Z,5.87
2017-08-22T21:08:02.430Z,6.17
2017-08-22T21:10:29.909Z,5.30
2017-08-22T21:12:57.344Z,5.47
2017-08-22T21:15:24.788Z,5.67
2017-08-22T21:17:52.271Z,6.40
2017-08-22T21:20:19.726Z,5.60
2017-08-22T21:22:47.174Z,5.83
2017-08-22T21:25:14.641Z,6.83
2017-08-22T21:27:42.088Z,5.00
2017-08-22T21:30:09.641Z,4.83
2017-08-22T21:32:37.088Z,4.13
2017-08-22T21:35:04.537Z,5.37
2017-08-22T21:37:32.013Z,4.97
2017-08-22T21:39:59.453Z,4.20
2017-08-22T21:42:26.931Z,5.27
2017-08-22T21:44:54.384Z,5.10
2017-08-22T21:47:21.838Z,4.73
2017-08-22T21:49:49.312Z,4.53
2017-08-22T21:52:16.781Z,4.83
2017-08-22T21:54:44.233Z,5.20
2017-08-22T21:57:11.680Z,4.90
2017-08-22T21:59:39.148Z,4.70
2017-08-22T22:02:06.593Z,4.93
2017-08-22T22:04:34.060Z,6.10
2017-08-22T22:07:01.517Z,5.43
2017-08-22T22:09:28.997Z,6.63
2017-08-22T22:11:56.468Z,6.20
2017-08-22T22:14:23.933Z,5.27
2017-08-22T22:16:51.381Z,5.17
2017-08-22T22:19:18.835Z,5.03
2017-08-22T22:21:46.293Z,5.50
2017-08-22T22:24:13.760Z,5.70
2017-08-22T22:26:41.216Z,5.70
2017-08-22T22:29:08.689Z,5.40
2017-08-22T22:31:36.134Z,4.97
2017-08-22T22:34:03.578Z,6.13
2017-08-22T22:36:31.048Z,6.00
2017-08-22T22:38:58.529Z,5.70
2017-08-22T22:41:25.977Z,5.57
2017-08-22T22:43:53.424Z,5.50
2017-08-22T22:46:20.893Z,5.97
2017-08-22T22:48:48.342Z,4.40
2017-08-22T22:51:15.815Z,5.33
2017-08-22T22:53:43.286Z,5.73
2017-08-22T22:56:10.740Z,4.90
2017-08-22T22:58:38.188Z,5.50
2017-08-22T23:01:05.656Z,6.23
2017-08-22T23:03:33.100Z,5.53
2017-08-22T23:06:00.586Z,6.23
2017-08-22T23:08:28.029Z,6.30
2017-08-22T23:10:55.491Z,5.30
2017-08-22T23:13:22.981Z,5.13
2017-08-22T23:15:50.492Z,5.40
2017-08-22T23:18:17.950Z,6.47
2017-08-22T23:20:45.416Z,6.23
2017-08-22T23:23:12.859Z,6.60
2017-08-22T23:25:40.333Z,5.07
2017-08-22T23:28:07.787Z,7.20
2017-08-22T23:30:35.239Z,5.90
2017-08-22T23:33:02.720Z,7.03
2017-08-22T23:35:30.174Z,6.77
2017-08-22T23:37:57.641Z,7.87
2017-08-22T23:40:25.084Z,6.90
2017-08-22T23:42:58.073Z,6.80
2017-08-22T23:45:25.545Z,6.70
2017-08-22T23:47:53.021Z,7.20
2017-08-22T23:50:20.463Z,6.50
2017-08-22T23:52:47.912Z,7.00
2017-08-22T23:55:15.389Z,7.53
2017-08-22T23:57:42.841Z,7.30
